Time;durP1;ratioP1;P1;durP2;ratioP2;P2;SDS_P1;SDS_P2;PMS_P1;PMS_P2;Temp;Humidity;BMP_temperature;BMP_pressure;BME280_temperature;BME280_humidity;BME280_pressure;Samples;Min_cycle;Max_cycle;Signal;HPM_P1;HPM_P2
2021/12/26 00:00:59;;;;;;;11.20;4.85;;;;;;;-2.59;67.45;100793.91;5022307;28;20391;-67
2021/12/26 00:03:27;;;;;;;9.18;4.65;;;;;;;-2.54;66.50;100799.69;5018593;28;20140;-67
2021/12/26 00:05:53;;;;;;;8.63;4.18;;;;;;;-2.59;67.36;100801.97;5022771;28;20029;-67
2021/12/26 00:08:20;;;;;;;9.68;4.32;;;;;;;-2.56;66.32;100806.22;5021644;28;20488;-67
2021/12/26 00:10:48;;;;;;;8.13;4.80;;;;;;;-2.54;66.80;100801.53;5022617;28;20054;-67
2021/12/26 00:13:13;;;;;;;8.35;4.97;;;;;;;-2.52;66.42;100802.25;5005283;28;20034;-67
2021/12/26 00:15:39;;;;;;;6.97;3.95;;;;;;;-2.07;66.31;100791.56;5004402;28;20030;-67
2021/12/26 00:18:04;;;;;;;8.15;4.60;;;;;;;-2.12;64.49;100789.31;5006634;28;20616;-67
2021/12/26 00:20:30;;;;;;;10.02;5.03;;;;;;;-2.45;65.83;100792.59;5004757;28;20038;-67
2021/12/26 00:22:56;;;;;;;6.47;4.20;;;;;;;-2.10;63.77;100784.63;5019792;28;20029;-67
2021/12/26 00:25:21;;;;;;;8.68;5.22;;;;;;;-2.38;65.78;100799.09;5022885;28;20653;-67
2021/12/26 00:27:46;;;;;;;6.18;3.45;;;;;;;-2.31;66.24;100789.41;5022672;28;20036;-67
2021/12/26 00:30:16;;;;;;;8.77;4.78;;;;;;;-2.48;66.40;100782.13;5017797;28;20559;-67
2021/12/26 00:32:42;;;;;;;7.82;3.83;;;;;;;-2.43;65.77;100774.47;5022392;28;20101;-67
2021/12/26 00:35:10;;;;;;;8.23;4.40;;;;;;;-2.52;66.35;100784.28;5022110;28;20044;-67
2021/12/26 00:37:35;;;;;;;9.10;4.43;;;;;;;-2.52;67.22;100783.44;5010897;28;20564;-67
2021/12/26 00:40:01;;;;;;;11.75;5.85;;;;;;;-2.55;67.17;100781.03;5003462;28;20100;-67
2021/12/26 00:42:26;;;;;;;9.48;4.88;;;;;;;-2.38;66.13;100761.44;5010679;28;20025;-67
2021/12/26 00:44:51;;;;;;;9.73;5.15;;;;;;;-2.52;66.55;100767.28;5036839;28;20021;-67
2021/12/26 00:47:17;;;;;;;8.95;4.70;;;;;;;-2.49;66.55;100765.13;5023520;28;20034;-67
2021/12/26 00:49:43;;;;;;;9.15;4.70;;;;;;;-2.27;65.81;100758.53;5022839;28;20025;-67
2021/12/26 00:52:08;;;;;;;8.43;4.65;;;;;;;-2.52;66.63;100751.16;5023179;28;20455;-67
2021/12/26 00:54:35;;;;;;;13.77;5.40;;;;;;;-2.57;67.57;100773.13;5023641;28;20036;-67
2021/12/26 00:57:00;;;;;;;10.38;4.70;;;;;;;-2.60;67.67;100776.09;5023084;28;20030;-66
2021/12/26 00:59:26;;;;;;;9.48;4.68;;;;;;;-2.61;67.35;100772.53;5023197;28;20386;-66
2021/12/26 01:01:54;;;;;;;8.63;4.65;;;;;;;-2.48;67.36;100771.38;5022992;28;20037;-67
2021/12/26 01:04:20;;;;;;;9.82;4.90;;;;;;;-2.51;66.20;100771.66;5021735;28;20037;-65
2021/12/26 01:06:45;;;;;;;7.45;4.63;;;;;;;-2.55;66.86;100771.09;5022172;28;20038;-65
2021/12/26 01:09:15;;;;;;;11.18;4.50;;;;;;;-2.55;67.42;100781.03;5023554;28;20110;-64
2021/12/26 01:11:47;;;;;;;8.70;5.13;;;;;;;-2.59;67.12;100780.47;5019469;28;20072;-65
2021/12/26 01:14:15;;;;;;;8.35;4.30;;;;;;;-2.56;67.60;100779.34;5002795;28;20036;-65
2021/12/26 01:16:40;;;;;;;8.05;5.00;;;;;;;-2.59;67.49;100785.84;5019649;28;20043;-65
2021/12/26 01:19:14;;;;;;;8.23;4.30;;;;;;;-2.48;66.94;100784.84;5017329;28;20029;-65
2021/12/26 01:21:41;;;;;;;10.88;5.70;;;;;;;-2.52;67.62;100786.13;5005937;28;20120;-65
2021/12/26 01:24:09;;;;;;;7.05;4.30;;;;;;;-2.24;66.79;100774.34;5018849;28;20026;-65
2021/12/26 01:26:35;;;;;;;9.45;4.60;;;;;;;-2.40;66.93;100776.84;5018427;28;20026;-65
2021/12/26 01:29:01;;;;;;;11.82;5.55;;;;;;;-2.53;67.11;100779.06;5020024;28;20493;-65
2021/12/26 01:31:27;;;;;;;9.40;4.63;;;;;;;-2.49;67.22;100777.72;5003661;28;20026;-65
2021/12/26 01:33:58;;;;;;;9.18;4.50;;;;;;;-2.49;67.31;100783.09;5011816;28;20088;-65
2021/12/26 01:36:25;;;;;;;8.07;4.65;;;;;;;-2.17;65.48;100775.47;5022408;28;20064;-65
2021/12/26 01:38:51;;;;;;;8.85;4.88;;;;;;;-2.50;66.71;100786.81;5025907;28;20565;-65
2021/12/26 01:41:17;;;;;;;6.95;4.00;;;;;;;-2.11;65.36;100769.47;5025822;28;20037;-65
2021/12/26 01:43:46;;;;;;;10.85;4.72;;;;;;;-2.43;66.69;100769.09;5027040;28;20771;-65
2021/12/26 01:46:13;;;;;;;7.93;4.43;;;;;;;-2.53;67.20;100773.66;5025871;28;20029;-64
2021/12/26 01:48:39;;;;;;;9.25;5.10;;;;;;;-2.54;68.15;100777.31;5025173;28;20026;-65
2021/12/26 01:51:04;;;;;;;9.00;4.95;;;;;;;-2.52;68.31;100772.66;5025482;28;20086;-65
2021/12/26 01:53:36;;;;;;;7.15;3.92;;;;;;;-2.17;66.88;100764.72;5026872;28;20443;-64
2021/12/26 01:56:04;;;;;;;10.93;4.80;;;;;;;-2.32;67.17;100765.38;5026004;28;20552;-65
2021/12/26 01:58:30;;;;;;;7.88;4.80;;;;;;;-2.29;66.84;100757.81;5026741;28;20022;-65
2021/12/26 02:01:02;;;;;;;10.13;4.95;;;;;;;-2.45;67.86;100754.94;5025004;28;20772;-64
2021/12/26 02:03:27;;;;;;;10.63;5.22;;;;;;;-2.42;67.36;100755.50;5025384;28;20045;-64
2021/12/26 02:05:53;;;;;;;9.85;5.20;;;;;;;-2.44;66.84;100757.47;5025742;28;20029;-64
2021/12/26 02:08:19;;;;;;;7.72;4.78;;;;;;;-2.23;65.98;100751.88;5021922;28;20033;-64
2021/12/26 02:10:45;;;;;;;8.82;4.78;;;;;;;-2.46;67.38;100762.16;5023964;28;20132;-64
2021/12/26 02:13:10;;;;;;;8.57;5.07;;;;;;;-2.49;68.20;100756.22;5031685;28;20030;-64
2021/12/26 02:15:36;;;;;;;8.95;4.75;;;;;;;-2.50;67.91;100759.91;5026171;28;20132;-64
2021/12/26 02:18:04;;;;;;;9.20;4.95;;;;;;;-2.51;67.91;100758.22;5025424;28;20426;-64
2021/12/26 02:21:01;;;;;;;;;;;;;;;-2.39;67.72;100752.50;5024419;28;20036;-64
2021/12/26 02:23:37;;;;;;;8.15;4.80;;;;;;;-2.34;66.60;100754.72;5025046;28;19909;-65
2021/12/26 02:28:38;;;;;;;10.57;5.00;;;;;;;-2.25;65.35;100744.91;5025632;28;20025;-64
2021/12/26 02:31:04;;;;;;;8.13;4.90;;;;;;;-2.47;67.83;100746.19;5005984;28;20482;-64
2021/12/26 02:33:29;;;;;;;9.07;5.75;;;;;;;-2.51;68.01;100750.16;5022220;28;20053;-64
2021/12/26 02:35:54;;;;;;;8.43;5.00;;;;;;;-2.51;68.36;100747.47;5025262;28;20053;-65
2021/12/26 02:38:20;;;;;;;9.35;4.93;;;;;;;-2.48;67.78;100741.81;5025853;28;20036;-65
2021/12/26 02:40:47;;;;;;;10.05;5.18;;;;;;;-2.52;68.88;100752.00;5025141;28;20385;-65
2021/12/26 02:43:15;;;;;;;8.82;4.88;;;;;;;-2.32;67.26;100747.38;5024996;28;20076;-65
2021/12/26 02:45:41;;;;;;;11.10;4.95;;;;;;;-2.41;67.80;100750.97;5025795;28;20083;-65
2021/12/26 02:48:08;;;;;;;8.18;5.32;;;;;;;-2.47;68.37;100749.72;5019901;28;20524;-65
2021/12/26 02:50:34;;;;;;;9.47;5.20;;;;;;;-2.49;68.28;100742.78;5016831;28;20160;-65
2021/12/26 02:53:02;;;;;;;9.70;5.30;;;;;;;-2.42;68.03;100731.28;5019431;28;20116;-65
2021/12/26 02:55:28;;;;;;;9.48;5.25;;;;;;;-2.37;67.99;100730.84;5030185;23;20092;-65
2021/12/26 02:57:56;;;;;;;10.20;4.90;;;;;;;-2.51;68.80;100739.41;5024853;28;20026;-65
2021/12/26 03:00:23;;;;;;;;;;;;;;;-2.40;69.31;100739.19;5041579;28;20036;-65
2021/12/26 03:02:52;;;;;;;9.52;5.40;;;;;;;-2.47;68.66;100741.66;5032343;28;19920;-65
2021/12/26 03:05:18;;;;;;;10.07;4.75;;;;;;;-1.97;65.80;100735.00;5043414;28;20032;-65
2021/12/26 03:07:46;;;;;;;8.38;4.65;;;;;;;-2.16;66.49;100739.50;5045011;28;20379;-65
2021/12/26 03:10:21;;;;;;;8.68;4.85;;;;;;;-2.50;68.06;100739.25;5025135;28;20110;-65
2021/12/26 03:12:46;;;;;;;7.97;4.75;;;;;;;-2.01;65.22;100738.97;5038030;28;20029;-65
2021/12/26 03:15:11;;;;;;;10.75;5.20;;;;;;;-2.49;67.87;100742.78;5044645;28;20375;-65
2021/12/26 03:17:38;;;;;;;12.13;5.20;;;;;;;-2.54;68.07;100750.44;5030631;28;20411;-65
2021/12/26 03:20:09;;;;;;;8.90;4.68;;;;;;;-2.58;67.66;100741.84;5024641;28;20025;-65
2021/12/26 03:22:34;;;;;;;9.48;5.00;;;;;;;-2.57;69.14;100738.16;5034110;28;20049;-65
2021/12/26 03:25:00;;;;;;;8.02;4.20;;;;;;;-2.21;66.82;100727.50;5030254;28;20068;-65
2021/12/26 03:27:25;;;;;;;6.85;4.40;;;;;;;-2.48;67.37;100725.66;5043753;28;20383;-65
2021/12/26 03:29:50;;;;;;;8.20;4.45;;;;;;;-2.28;67.29;100724.56;5037760;28;20116;-65
2021/12/26 03:32:15;;;;;;;6.38;3.40;;;;;;;-2.28;66.43;100719.19;5035591;28;20025;-65
2021/12/26 03:34:45;;;;;;;7.68;4.50;;;;;;;-2.26;66.74;100711.81;5025181;28;20077;-65
2021/12/26 03:37:11;;;;;;;8.00;4.07;;;;;;;-1.86;64.33;100702.47;5032758;28;20123;-65
2021/12/26 03:39:36;;;;;;;7.20;4.18;;;;;;;-2.02;64.74;100705.84;5024780;28;20116;-65
2021/12/26 03:42:01;;;;;;;9.27;4.82;;;;;;;-2.71;67.54;100707.22;5036925;28;20037;-65
2021/12/26 03:44:27;;;;;;;8.13;3.75;;;;;;;-2.20;64.74;100713.03;5025033;28;20053;-65
2021/12/26 03:46:52;;;;;;;7.97;4.15;;;;;;;-2.43;65.55;100713.47;5025159;28;20055;-65
2021/12/26 03:49:17;;;;;;;7.78;4.82;;;;;;;-2.79;67.90;100715.16;5037009;28;20021;-66
2021/12/26 03:51:42;;;;;;;9.50;4.75;;;;;;;-2.77;67.13;100715.88;5027768;28;20483;-66
2021/12/26 03:54:08;;;;;;;9.40;4.97;;;;;;;-2.88;68.36;100718.75;5024106;28;20029;-66
2021/12/26 03:56:33;;;;;;;8.75;4.80;;;;;;;-2.89;68.80;100725.09;5037466;28;20045;-66
2021/12/26 03:58:59;;;;;;;8.82;5.20;;;;;;;-2.89;69.65;100727.78;5044958;28;20028;-66
2021/12/26 04:01:25;;;;;;;9.18;5.18;;;;;;;-2.88;69.08;100722.28;5029837;28;20060;-66
2021/12/26 04:03:50;;;;;;;11.32;5.97;;;;;;;-2.88;68.89;100710.69;5030992;28;20033;-66
2021/12/26 04:06:16;;;;;;;9.32;5.57;;;;;;;-2.84;69.33;100706.69;5043220;28;20040;-66
2021/12/26 04:08:41;;;;;;;10.95;5.90;;;;;;;-2.91;69.94;100716.34;5036037;28;20396;-66
2021/12/26 04:11:07;;;;;;;10.52;4.82;;;;;;;-2.66;68.85;100710.31;5023277;28;20026;-66
2021/12/26 04:13:34;;;;;;;12.43;5.88;;;;;;;-2.79;68.42;100700.88;5035244;28;20033;-66
2021/12/26 04:16:00;;;;;;;9.98;6.50;;;;;;;-2.98;70.13;100704.53;5025766;28;20029;-66
2021/12/26 04:18:25;;;;;;;9.80;5.10;;;;;;;-3.03;70.36;100704.13;5037605;28;20064;-66
2021/12/26 04:20:50;;;;;;;13.25;5.75;;;;;;;-2.99;69.70;100708.19;5033980;28;20269;-66
2021/12/26 04:23:15;;;;;;;11.23;5.90;;;;;;;-2.90;68.81;100701.94;5027325;28;20033;-66
2021/12/26 04:25:42;;;;;;;9.65;5.00;;;;;;;-3.12;70.13;100708.50;5030293;28;20029;-66
2021/12/26 04:28:07;;;;;;;9.50;4.88;;;;;;;-3.08;69.80;100698.34;5039943;28;20029;-66
2021/12/26 04:30:34;;;;;;;10.38;6.05;;;;;;;-3.02;69.21;100698.59;5023989;28;20051;-66
2021/12/26 04:33:01;;;;;;;10.05;5.78;;;;;;;-3.19;70.42;100697.50;5025504;28;20033;-66
2021/12/26 04:35:26;;;;;;;8.57;5.60;;;;;;;-3.30;71.00;100694.97;5043016;28;20108;-66
2021/12/26 04:37:52;;;;;;;10.45;6.00;;;;;;;-3.35;71.76;100701.78;5042570;28;20129;-66
2021/12/26 04:40:18;;;;;;;9.55;5.00;;;;;;;-3.22;70.60;100710.38;5025347;28;20030;-66
2021/12/26 04:42:45;;;;;;;11.77;6.22;;;;;;;-3.41;71.96;100708.56;5023743;28;20033;-66
2021/12/26 04:45:11;;;;;;;8.57;5.40;;;;;;;-3.45;72.43;100707.16;5023532;28;20026;-66
2021/12/26 04:47:37;;;;;;;10.73;5.30;;;;;;;-3.32;71.57;100701.50;5023734;28;20391;-66
2021/12/26 04:50:06;;;;;;;10.85;5.53;;;;;;;-3.48;72.42;100696.72;5022453;28;20041;-66
2021/12/26 04:52:31;;;;;;;;;;;;;;;-3.44;72.24;100698.13;5026092;28;20029;-66
2021/12/26 04:54:57;;;;;;;7.80;3.97;;;;;;;-3.34;71.62;100690.91;5023745;28;20500;-66
2021/12/26 04:57:22;;;;;;;8.15;3.95;;;;;;;-3.22;71.30;100691.56;5016229;28;20511;-66
2021/12/26 04:59:48;;;;;;;13.00;6.18;;;;;;;-3.50;72.11;100690.63;5038912;28;20104;-66
2021/12/26 05:02:13;;;;;;;11.77;5.22;;;;;;;-3.48;71.93;100697.56;5025162;28;20038;-66
2021/12/26 05:04:40;;;;;;;7.72;4.63;;;;;;;-3.38;71.53;100692.19;5042729;28;20065;-66
2021/12/26 05:07:06;;;;;;;9.23;3.75;;;;;;;-3.00;69.28;100690.38;5024774;28;20032;-66
2021/12/26 05:09:31;;;;;;;9.88;5.35;;;;;;;-3.44;71.35;100692.78;5024011;28;20034;-66
2021/12/26 05:11:57;;;;;;;9.77;5.53;;;;;;;-3.58;72.03;100690.53;5022997;28;20025;-66
2021/12/26 05:14:23;;;;;;;9.38;4.68;;;;;;;-3.40;71.37;100689.66;5038452;28;20037;-66
2021/12/26 05:16:48;;;;;;;8.80;5.05;;;;;;;-3.62;72.51;100694.47;5027527;28;20372;-66
2021/12/26 05:19:14;;;;;;;9.48;5.45;;;;;;;-3.69;72.38;100689.69;5041395;28;20025;-66
2021/12/26 05:21:39;;;;;;;8.57;4.38;;;;;;;-3.53;72.13;100685.56;5032279;28;20029;-66
2021/12/26 05:24:04;;;;;;;10.02;4.97;;;;;;;-3.68;72.61;100675.28;5041961;28;20040;-66
2021/12/26 05:26:30;;;;;;;8.98;4.90;;;;;;;-3.72;72.87;100678.38;5038960;28;20029;-66
2021/12/26 05:28:55;;;;;;;12.73;5.00;;;;;;;-3.74;72.97;100673.16;5029934;28;20083;-66
2021/12/26 05:31:20;;;;;;;8.80;5.22;;;;;;;-3.79;73.42;100682.63;5035603;28;20059;-66
2021/12/26 05:33:45;;;;;;;12.10;6.07;;;;;;;-3.82;73.85;100681.06;5046503;28;20029;-66
2021/12/26 05:36:11;;;;;;;10.75;6.63;;;;;;;-3.82;73.89;100677.53;5045803;28;20028;-66
2021/12/26 05:38:36;;;;;;;10.35;5.75;;;;;;;-3.68;72.94;100669.91;5027306;28;20026;-66
2021/12/26 05:41:02;;;;;;;10.07;5.50;;;;;;;-3.76;73.00;100672.44;5025694;28;20443;-66
2021/12/26 05:43:27;;;;;;;8.85;5.35;;;;;;;-3.80;73.58;100676.44;5028388;28;20022;-66
2021/12/26 05:45:52;;;;;;;12.23;6.15;;;;;;;-3.61;72.52;100663.97;5026500;28;20021;-66
2021/12/26 05:48:17;;;;;;;9.77;5.63;;;;;;;-3.80;73.88;100660.31;5039915;28;20057;-65
2021/12/26 05:50:43;;;;;;;10.68;5.85;;;;;;;-3.76;73.29;100658.19;5026332;28;20033;-65
2021/12/26 05:53:08;;;;;;;10.77;6.38;;;;;;;-3.83;74.06;100654.38;5042792;28;20029;-65
2021/12/26 05:55:34;;;;;;;11.15;6.00;;;;;;;-3.81;74.04;100655.09;5030308;28;20072;-65
2021/12/26 05:57:59;;;;;;;10.35;5.95;;;;;;;-3.79;74.04;100659.34;5026868;28;20084;-65
2021/12/26 06:00:24;;;;;;;10.02;5.75;;;;;;;-3.85;74.14;100657.22;5033406;28;20498;-65
2021/12/26 06:02:50;;;;;;;9.88;6.57;;;;;;;-3.89;74.27;100661.19;5027475;28;20030;-65
2021/12/26 06:05:17;;;;;;;11.18;6.03;;;;;;;-3.90;74.42;100654.13;5029995;28;20033;-65
2021/12/26 06:07:43;;;;;;;10.45;5.72;;;;;;;-3.83;74.32;100655.22;5046150;28;20029;-65
2021/12/26 06:10:08;;;;;;;9.98;5.80;;;;;;;-3.83;73.99;100659.75;5044154;28;20044;-65
2021/12/26 06:12:34;;;;;;;9.98;5.57;;;;;;;-3.85;74.43;100661.72;5027905;28;20100;-65
2021/12/26 06:15:00;;;;;;;9.65;5.65;;;;;;;-3.72;73.18;100664.97;5031297;28;20120;-65
2021/12/26 06:17:25;;;;;;;9.93;5.78;;;;;;;-3.88;74.28;100654.81;5045760;28;20035;-66
2021/12/26 06:19:50;;;;;;;13.63;7.05;;;;;;;-3.86;74.50;100652.81;5035537;28;20033;-65
2021/12/26 06:22:16;;;;;;;10.82;6.03;;;;;;;-3.94;74.36;100648.19;5029491;28;20048;-65
2021/12/26 06:24:42;;;;;;;12.60;5.95;;;;;;;-3.97;74.63;100653.81;5036178;28;20049;-65
2021/12/26 06:27:07;;;;;;;9.20;5.28;;;;;;;-3.83;73.61;100651.72;5025351;28;20049;-65
2021/12/26 06:29:32;;;;;;;12.00;5.90;;;;;;;-3.92;74.21;100661.44;5042984;28;20035;-65
2021/12/26 06:31:57;;;;;;;15.05;6.97;;;;;;;-3.91;73.89;100653.25;5035208;28;20033;-65
2021/12/26 06:34:23;;;;;;;11.60;6.18;;;;;;;-3.94;74.09;100642.81;5045001;28;20025;-65
2021/12/26 06:36:48;;;;;;;13.55;6.65;;;;;;;-4.00;74.87;100648.75;5029510;28;20049;-65
2021/12/26 06:39:13;;;;;;;13.10;6.05;;;;;;;-4.02;75.34;100647.19;5025966;28;20025;-65
2021/12/26 06:41:38;;;;;;;12.18;5.70;;;;;;;-4.02;75.19;100652.56;5025635;28;20192;-65
2021/12/26 06:44:07;;;;;;;12.45;7.05;;;;;;;-4.04;75.53;100647.34;5025831;28;20013;-65
2021/12/26 06:46:33;;;;;;;13.85;6.15;;;;;;;-3.83;73.77;100651.72;5026061;28;20095;-65
2021/12/26 06:48:58;;;;;;;9.00;5.70;;;;;;;-4.00;74.46;100648.75;5025372;28;20437;-65
2021/12/26 06:51:23;;;;;;;12.40;6.35;;;;;;;-3.99;74.80;100655.81;5025469;28;20037;-65
2021/12/26 06:53:49;;;;;;;11.68;5.82;;;;;;;-4.01;75.53;100652.41;5025612;28;20068;-65
2021/12/26 06:56:14;;;;;;;9.32;5.63;;;;;;;-3.93;74.96;100644.50;5024850;28;20415;-65
2021/12/26 06:58:39;;;;;;;9.43;5.05;;;;;;;-3.93;75.02;100649.88;5024852;28;20447;-65
2021/12/26 07:01:05;;;;;;;13.98;6.10;;;;;;;-4.00;75.13;100664.00;5024725;28;20032;-65
2021/12/26 07:03:30;;;;;;;11.25;6.20;;;;;;;-3.93;74.81;100659.75;5025435;28;20034;-65
2021/12/26 07:05:55;;;;;;;12.25;6.53;;;;;;;-3.97;75.20;100655.66;5025191;28;20025;-65
2021/12/26 07:08:21;;;;;;;10.05;5.78;;;;;;;-3.92;75.23;100658.75;5025206;28;20033;-65
2021/12/26 07:10:46;;;;;;;9.65;6.28;;;;;;;-4.00;75.98;100662.16;5024919;28;20025;-65
2021/12/26 07:13:11;;;;;;;10.52;6.65;;;;;;;-4.01;75.64;100656.91;5023938;28;20065;-65
2021/12/26 07:15:37;;;;;;;11.80;6.13;;;;;;;-4.02;76.37;100657.91;5024762;28;20121;-65
2021/12/26 07:18:03;;;;;;;11.07;6.75;;;;;;;-3.94;75.67;100652.72;5024410;28;20108;-65
2021/12/26 07:20:28;;;;;;;10.05;5.50;;;;;;;-3.67;74.23;100647.44;5025088;28;20482;-65
2021/12/26 07:22:54;;;;;;;10.60;6.47;;;;;;;-3.95;75.66;100654.53;5025220;28;20593;-65
2021/12/26 07:25:19;;;;;;;12.88;6.35;;;;;;;-3.88;75.09;100644.09;5024236;28;20026;-66
2021/12/26 07:27:44;;;;;;;11.30;7.20;;;;;;;-3.88;75.14;100644.09;5024954;28;20052;-66
2021/12/26 07:30:10;;;;;;;11.15;5.72;;;;;;;-3.81;74.85;100641.66;5024407;28;20144;-66
2021/12/26 07:32:35;;;;;;;14.90;6.93;;;;;;;-3.85;75.37;100634.88;5024015;28;20029;-65
2021/12/26 07:35:01;;;;;;;13.10;6.18;;;;;;;-3.79;74.97;100648.59;5025299;28;20025;-65
2021/12/26 07:37:27;;;;;;;11.48;6.20;;;;;;;-3.87;75.61;100648.44;5024993;28;20041;-65
2021/12/26 07:39:53;;;;;;;12.75;6.53;;;;;;;-3.85;75.68;100650.97;5022796;28;20108;-65
2021/12/26 07:42:19;;;;;;;11.35;6.07;;;;;;;-3.86;75.68;100650.13;5024062;28;20048;-65
2021/12/26 07:44:45;;;;;;;11.25;6.45;;;;;;;-3.69;74.97;100638.69;5023283;28;20025;-65
2021/12/26 07:47:10;;;;;;;10.55;5.93;;;;;;;-3.78;75.78;100646.75;5024332;28;20112;-65
2021/12/26 07:49:35;;;;;;;10.30;6.30;;;;;;;-3.81;75.73;100641.66;5024119;28;20552;-65
2021/12/26 07:52:02;;;;;;;9.88;5.82;;;;;;;-3.80;75.97;100638.00;5023321;28;20438;-65
2021/12/26 07:54:28;;;;;;;10.88;6.53;;;;;;;-3.74;75.43;100642.81;5022515;28;20154;-65
2021/12/26 07:56:54;;;;;;;11.23;6.10;;;;;;;-3.79;75.66;100645.06;5027097;28;20069;-65
2021/12/26 07:59:20;;;;;;;11.02;6.10;;;;;;;-3.79;75.77;100650.44;5024376;28;20038;-65
2021/12/26 08:01:46;;;;;;;9.13;5.78;;;;;;;-3.72;75.76;100644.34;5024989;28;20387;-65
2021/12/26 08:04:13;;;;;;;10.05;6.07;;;;;;;-3.74;75.97;100643.66;5031875;28;20028;-65
2021/12/26 08:06:40;;;;;;;11.23;6.35;;;;;;;-3.74;76.29;100649.00;5037794;28;20399;-65
2021/12/26 08:09:07;;;;;;;10.60;7.32;;;;;;;-3.70;75.92;100649.56;5024134;28;20044;-66
2021/12/26 08:11:33;;;;;;;9.55;6.10;;;;;;;-3.72;76.39;100655.06;5022326;28;20072;-65
2021/12/26 08:13:58;;;;;;;12.18;6.60;;;;;;;-3.69;76.61;100659.31;5026917;28;20056;-65
2021/12/26 08:16:26;;;;;;;11.35;6.20;;;;;;;-3.68;76.61;100648.44;5042440;28;20482;-65
2021/12/26 08:18:51;;;;;;;12.27;7.20;;;;;;;-3.66;76.96;100659.84;5043317;28;20040;-65
2021/12/26 08:21:17;;;;;;;12.55;6.80;;;;;;;-3.61;76.71;100656.75;5024645;28;20037;-65
2021/12/26 08:23:42;;;;;;;9.38;6.05;;;;;;;-3.58;76.83;100664.53;5018379;28;20112;-65
2021/12/26 08:26:07;;;;;;;9.02;5.90;;;;;;;-3.56;76.97;100659.84;5023138;28;20025;-65
2021/12/26 08:28:33;;;;;;;9.63;6.32;;;;;;;-3.51;76.81;100664.78;5025154;28;20029;-65
2021/12/26 08:30:59;;;;;;;14.43;6.75;;;;;;;-3.46;77.03;100665.19;5024460;28;20029;-66
2021/12/26 08:33:24;;;;;;;11.65;6.22;;;;;;;-3.40;77.26;100661.94;5038983;28;20487;-65
2021/12/26 08:35:50;;;;;;;12.98;6.72;;;;;;;-3.33;77.54;100662.22;5043899;28;20029;-66
2021/12/26 08:38:20;;;;;;;12.43;7.07;;;;;;;-3.26;77.42;100661.47;5041307;28;20383;-66
2021/12/26 08:40:46;;;;;;;10.70;6.10;;;;;;;-3.18;77.26;100656.22;5041333;28;20479;-66
2021/12/26 08:43:11;;;;;;;13.02;7.00;;;;;;;-3.07;76.82;100652.50;5029827;28;20091;-65
2021/12/26 08:45:37;;;;;;;12.82;7.75;;;;;;;-2.98;76.77;100653.47;5023954;28;20045;-65
2021/12/26 08:48:03;;;;;;;15.32;7.38;;;;;;;-2.92;76.78;100656.41;5024648;28;20022;-65
2021/12/26 08:50:29;;;;;;;11.98;7.47;;;;;;;-2.86;76.62;100660.34;5024743;28;20516;-65
2021/12/26 08:52:55;;;;;;;10.85;6.45;;;;;;;-2.78;76.90;100663.13;5005734;28;20106;-65
2021/12/26 08:55:23;;;;;;;11.77;6.35;;;;;;;-2.51;74.93;100658.75;5007153;28;20057;-65
2021/12/26 08:57:49;;;;;;;10.18;5.80;;;;;;;-2.49;74.60;100662.09;5020416;28;20371;-65
2021/12/26 09:00:15;;;;;;;10.25;6.45;;;;;;;-2.45;74.02;100655.44;5027371;28;20022;-65
2021/12/26 09:02:41;;;;;;;11.70;6.93;;;;;;;-2.48;74.95;100658.44;5026231;28;20722;-65
2021/12/26 09:05:06;;;;;;;10.77;6.78;;;;;;;-2.49;74.78;100659.41;5027670;28;20018;-65
2021/12/26 09:07:32;;;;;;;10.35;6.50;;;;;;;-2.49;74.49;100657.56;5027054;28;20037;-65
2021/12/26 09:09:58;;;;;;;19.52;13.50;;;;;;;-2.34;74.07;100657.91;5027414;28;20025;-65
2021/12/26 09:12:24;;;;;;;13.98;10.27;;;;;;;-2.33;73.96;100654.25;5026542;28;20104;-65
2021/12/26 09:14:49;;;;;;;16.67;10.93;;;;;;;-2.31;74.29;100646.00;5026794;28;20074;-65
2021/12/26 09:17:15;;;;;;;13.43;7.57;;;;;;;-2.28;73.48;100643.88;5026846;28;20384;-65
2021/12/26 09:19:40;;;;;;;12.65;7.03;;;;;;;-2.25;73.69;100646.25;5025992;28;20736;-65
2021/12/26 09:22:08;;;;;;;10.85;6.53;;;;;;;-2.10;72.65;100642.00;5026265;28;20041;-65
2021/12/26 09:24:34;;;;;;;13.45;7.95;;;;;;;-2.17;73.48;100648.19;5026742;28;20116;-65
2021/12/26 09:27:00;;;;;;;11.13;5.95;;;;;;;-2.15;74.13;100644.31;5026243;28;20163;-65
2021/12/26 09:29:25;;;;;;;14.63;7.57;;;;;;;-2.13;73.96;100653.09;5026697;28;20092;-64
2021/12/26 09:31:52;;;;;;;13.05;7.20;;;;;;;-2.10;73.75;100652.78;5026579;28;20022;-65
2021/12/26 09:34:17;;;;;;;14.30;7.68;;;;;;;-2.05;74.57;100651.47;5025610;28;20252;-65
2021/12/26 09:36:44;;;;;;;14.68;7.43;;;;;;;-2.00;74.47;100649.16;5026302;28;20025;-65
2021/12/26 09:39:09;;;;;;;13.82;8.80;;;;;;;-1.98;74.40;100641.78;5026695;28;20231;-65
2021/12/26 09:41:36;;;;;;;14.38;8.48;;;;;;;-1.89;74.21;100643.53;5025575;28;20034;-65
2021/12/26 09:44:02;;;;;;;14.45;8.40;;;;;;;-1.89;74.10;100641.69;5026661;28;20025;-65
2021/12/26 09:46:30;;;;;;;15.20;9.25;;;;;;;-1.88;74.58;100635.31;5026303;28;20038;-65
2021/12/26 09:48:55;;;;;;;15.13;9.80;;;;;;;-1.80;74.30;100636.38;5025757;28;20397;-65
2021/12/26 09:51:20;;;;;;;14.55;9.25;;;;;;;-1.76;74.34;100641.31;5025820;28;20045;-65
2021/12/26 09:53:46;;;;;;;19.77;12.70;;;;;;;-1.69;74.25;100634.28;5026830;28;20026;-64
2021/12/26 09:56:12;;;;;;;15.00;8.95;;;;;;;-1.65;74.36;100629.44;5024916;28;20360;-65
2021/12/26 09:58:53;;;;;;;15.35;8.38;;;;;;;-1.65;74.24;100630.28;5025905;28;20314;-65
2021/12/26 10:01:35;;;;;;;16.40;8.55;;;;;;;-1.59;74.37;100647.66;5024616;28;20025;-64
2021/12/26 10:04:14;;;;;;;16.95;8.38;;;;;;;-1.51;74.72;100625.34;5024190;28;20128;-65
2021/12/26 10:06:39;;;;;;;14.10;8.30;;;;;;;-1.46;74.28;100625.72;5025499;28;20203;-65
2021/12/26 10:09:08;;;;;;;12.95;7.60;;;;;;;-1.39;74.55;100632.97;5025695;28;20056;-65
2021/12/26 10:11:36;;;;;;;14.32;7.95;;;;;;;-1.28;74.45;100631.03;5025502;28;20032;-65
2021/12/26 10:14:06;;;;;;;14.75;8.05;;;;;;;-1.26;75.07;100615.56;5025325;28;20058;-65
2021/12/26 10:16:38;;;;;;;14.18;8.52;;;;;;;-1.22;74.68;100615.06;5026002;28;20045;-65
2021/12/26 10:19:05;;;;;;;13.68;7.70;;;;;;;-1.14;74.13;100600.78;5024351;28;20043;-65
2021/12/26 10:21:35;;;;;;;14.20;8.07;;;;;;;-1.13;74.58;100608.72;5026116;28;20035;-65
2021/12/26 10:24:14;;;;;;;15.18;8.95;;;;;;;-1.07;73.91;100597.28;5026299;28;20025;-65
2021/12/26 10:26:52;;;;;;;14.80;9.13;;;;;;;-1.07;74.61;100605.38;5025130;28;20056;-65
2021/12/26 10:29:20;;;;;;;;;;;;;;;-0.96;74.88;100603.38;5026005;28;20030;-65
2021/12/26 10:32:06;;;;;;;14.52;7.78;;;;;;;-0.94;74.44;100591.47;5025102;28;20286;-65
2021/12/26 10:34:45;;;;;;;14.13;7.78;;;;;;;-0.89;74.08;100582.88;5025508;28;20564;-65
2021/12/26 10:37:20;;;;;;;14.68;7.95;;;;;;;-0.79;72.99;100575.50;5024853;28;20124;-65
2021/12/26 10:39:49;;;;;;;14.02;8.07;;;;;;;-0.82;74.31;100573.13;5025958;28;20344;-65
2021/12/26 10:42:21;;;;;;;13.60;8.55;;;;;;;-0.78;74.55;100579.88;5024408;28;20106;-65
2021/12/26 10:44:50;;;;;;;16.83;9.60;;;;;;;-0.72;74.42;100573.81;5025742;28;20091;-65
2021/12/26 10:47:24;;;;;;;13.63;8.80;;;;;;;-0.65;74.66;100564.09;5024233;28;20029;-65
2021/12/26 10:50:00;;;;;;;14.60;9.00;;;;;;;-0.58;74.63;100580.44;5025092;28;20048;-65
2021/12/26 10:52:31;;;;;;;14.65;8.75;;;;;;;-0.56;74.16;100578.41;5024878;28;20053;-65
2021/12/26 10:55:06;;;;;;;9.65;6.22;;;;;;;-0.18;72.38;100566.16;5025067;28;20104;-65
2021/12/26 10:57:36;;;;;;;18.30;9.30;;;;;;;-0.52;74.19;100572.53;5023718;28;20056;-65
2021/12/26 11:00:13;;;;;;;15.70;9.45;;;;;;;-0.54;73.98;100571.84;5007409;28;20018;-65
2021/12/26 11:02:43;;;;;;;15.70;8.68;;;;;;;-0.48;74.54;100575.75;5024400;28;20042;-65
2021/12/26 11:05:14;;;;;;;17.80;10.13;;;;;;;-0.46;74.09;100581.81;5024783;28;20018;-65
2021/12/26 11:07:45;;;;;;;18.20;10.82;;;;;;;-0.39;74.47;100573.91;5024710;28;20040;-65
2021/12/26 11:10:20;;;;;;;17.20;9.52;;;;;;;-0.32;75.33;100578.47;5024102;28;20036;-65
2021/12/26 11:12:52;;;;;;;15.48;9.23;;;;;;;-0.28;74.23;100565.50;5024326;28;20029;-65
2021/12/26 11:15:20;;;;;;;17.88;9.65;;;;;;;-0.26;74.52;100556.19;5024406;28;20235;-65
2021/12/26 11:17:54;;;;;;;16.90;9.70;;;;;;;-0.23;74.65;100552.34;5024038;28;20029;-65
2021/12/26 11:20:24;;;;;;;18.00;10.73;;;;;;;-0.23;74.60;100541.53;5024281;28;20030;-65
2021/12/26 11:22:50;;;;;;;12.75;7.72;;;;;;;-0.12;74.44;100548.44;5024728;28;20053;-65